Time;durP1;ratioP1;P1;durP2;ratioP2;P2;SDS_P1;SDS_P2;PMS_P1;PMS_P2;Temp;Humidity;BMP_temperature;BMP_pressure;BME280_temperature;BME280_humidity;BME280_pressure;Samples;Min_cycle;Max_cycle;Signal;HPM_P1;HPM_P2
2021/04/01 00:00:12;;;;;;;8.90;6.83;;;;;;;9.53;86.66;101108.22;5011061;28;20216;-68
2021/04/01 00:02:38;;;;;;;13.87;7.50;;;;;;;9.49;86.78;101112.53;5010881;28;20224;-69
2021/04/01 00:05:05;;;;;;;9.90;7.20;;;;;;;9.50;86.82;101109.53;5010385;28;20212;-68
2021/04/01 00:07:30;;;;;;;10.60;7.67;;;;;;;9.42;87.12;101109.19;5010871;28;20177;-69
2021/04/01 00:09:58;;;;;;;8.30;6.97;;;;;;;9.55;87.52;101106.91;5012212;28;20177;-69
2021/04/01 00:12:26;;;;;;;12.47;7.03;;;;;;;9.63;87.13;101106.44;5010128;28;20592;-69
2021/04/01 00:14:51;;;;;;;9.90;6.97;;;;;;;9.57;87.22;101108.25;5022317;28;20212;-69
2021/04/01 00:17:17;;;;;;;9.40;6.67;;;;;;;9.42;89.03;101103.75;5029655;28;20236;-70
2021/04/01 00:19:42;;;;;;;13.30;7.40;;;;;;;9.30;89.88;101101.19;5030262;28;20212;-68
2021/04/01 00:22:11;;;;;;;8.07;7.00;;;;;;;9.45;89.55;101114.09;5029015;28;20216;-68
2021/04/01 00:24:39;;;;;;;9.00;6.80;;;;;;;9.44;89.32;101113.28;5031192;28;20291;-68
2021/04/01 00:27:09;;;;;;;9.23;7.20;;;;;;;9.63;88.62;101112.69;5046303;28;20220;-68
2021/04/01 00:29:35;;;;;;;8.77;6.70;;;;;;;9.58;90.11;101104.50;5044989;28;20651;-68
2021/04/01 00:32:00;;;;;;;10.00;6.37;;;;;;;9.80;89.77;101102.56;5012109;28;20227;-68
2021/04/01 00:34:28;;;;;;;11.40;6.60;;;;;;;9.80;89.87;101099.84;5029797;28;20208;-68
2021/04/01 00:36:56;;;;;;;12.33;6.83;;;;;;;9.85;89.32;101102.59;5030841;28;20235;-69
2021/04/01 00:39:22;;;;;;;11.10;7.03;;;;;;;9.78;87.56;101101.16;5031303;28;20220;-69
2021/04/01 00:41:47;;;;;;;11.93;7.53;;;;;;;9.76;86.11;101098.72;5028437;28;20226;-69
2021/04/01 00:44:16;;;;;;;10.00;7.90;;;;;;;9.74;85.43;101095.47;5006047;28;20219;-69
2021/04/01 00:46:47;;;;;;;10.90;8.20;;;;;;;9.71;85.17;101090.53;5045363;28;20256;-69
2021/04/01 00:49:13;;;;;;;10.63;8.07;;;;;;;9.74;84.60;101091.91;5029791;28;20176;-70
2021/04/01 00:51:39;;;;;;;11.40;7.67;;;;;;;9.66;84.63;101082.34;5029696;28;20228;-69
2021/04/01 00:54:07;;;;;;;11.27;7.47;;;;;;;9.55;85.60;101084.38;5029489;28;20204;-69
2021/04/01 00:56:32;;;;;;;11.67;7.70;;;;;;;9.35;87.48;101095.00;5029019;28;20290;-68
2021/04/01 00:58:58;;;;;;;10.73;7.97;;;;;;;9.47;87.27;101082.13;5046298;28;20212;-69
2021/04/01 01:04:16;;;;;;;9.30;7.60;;;;;;;9.53;87.55;101086.53;5030869;28;20219;-69
2021/04/01 01:06:41;;;;;;;10.13;7.57;;;;;;;9.61;87.17;101082.31;5028804;28;20256;-69
2021/04/01 01:09:08;;;;;;;11.20;7.83;;;;;;;9.58;87.31;101080.09;5029510;28;20180;-69
2021/04/01 01:11:36;;;;;;;11.47;7.93;;;;;;;9.64;87.24;101079.06;5012190;28;20254;-68
2021/04/01 01:14:03;;;;;;;11.83;7.80;;;;;;;9.63;86.59;101068.47;5024948;28;20213;-70
2021/04/01 01:16:34;;;;;;;10.53;8.07;;;;;;;9.63;87.28;101061.16;5027869;28;20853;-69
2021/04/01 01:19:00;;;;;;;11.30;7.57;;;;;;;9.66;87.36;101060.63;5045937;28;20289;-69
2021/04/01 01:21:26;;;;;;;10.57;7.90;;;;;;;9.66;87.20;101055.22;5011981;28;20230;-69
2021/04/01 01:23:52;;;;;;;10.33;8.03;;;;;;;9.59;87.79;101054.59;5028422;28;20565;-69
2021/04/01 01:26:22;;;;;;;10.37;7.67;;;;;;;9.79;86.87;101060.22;5012066;28;20244;-69
2021/04/01 01:28:48;;;;;;;11.43;7.90;;;;;;;9.83;86.28;101050.47;5028941;28;20199;-69
2021/04/01 01:31:14;;;;;;;11.63;7.60;;;;;;;9.87;85.34;101056.22;5028436;28;20228;-69
2021/04/01 01:33:43;;;;;;;10.10;7.57;;;;;;;9.88;85.55;101047.00;5044962;28;20231;-69
2021/04/01 01:36:09;;;;;;;10.13;7.67;;;;;;;9.90;84.67;101051.09;5028261;28;20729;-69
2021/04/01 01:38:35;;;;;;;9.27;7.90;;;;;;;9.94;83.84;101052.25;5030016;28;20180;-69
2021/04/01 01:41:00;;;;;;;13.90;8.80;;;;;;;9.81;84.17;101047.22;5012167;28;20587;-69
2021/04/01 01:43:26;;;;;;;8.77;7.63;;;;;;;9.89;84.45;101056.78;5011546;28;20211;-69
2021/04/01 01:45:54;;;;;;;10.77;7.50;;;;;;;9.95;84.36;101048.47;5016715;28;20221;-69
2021/04/01 01:48:20;;;;;;;11.13;8.23;;;;;;;9.92;84.24;101054.41;5008053;28;20191;-69
2021/04/01 01:50:45;;;;;;;10.63;8.10;;;;;;;9.87;84.95;101046.22;5009341;28;20762;-69
2021/04/01 01:53:11;;;;;;;11.10;8.00;;;;;;;9.87;84.56;101046.22;5008757;28;20609;-69
2021/04/01 01:55:37;;;;;;;11.70;8.07;;;;;;;9.84;85.55;101052.13;5010733;28;20227;-69
2021/04/01 01:58:06;;;;;;;10.17;8.10;;;;;;;9.70;85.30;101056.31;5011387;28;20181;-69
2021/04/01 02:00:40;;;;;;;13.33;8.10;;;;;;;9.89;85.58;101046.75;5009130;28;20239;-69
2021/04/01 02:03:06;;;;;;;12.47;8.10;;;;;;;9.98;85.03;101049.84;5009460;28;20208;-68
2021/04/01 02:05:35;;;;;;;11.43;8.07;;;;;;;10.14;84.39;101047.81;5008552;28;20684;-68
2021/04/01 02:08:04;;;;;;;11.57;8.37;;;;;;;10.09;84.68;101046.94;5025910;28;20299;-68
2021/04/01 02:10:34;;;;;;;10.37;7.50;;;;;;;10.13;84.63;101039.94;5009273;28;20232;-68
2021/04/01 02:13:02;;;;;;;9.77;8.13;;;;;;;10.17;84.07;101046.47;5020187;28;20350;-69
2021/04/01 02:15:29;;;;;;;9.23;7.90;;;;;;;10.23;84.57;101043.53;5013507;28;20219;-68
2021/04/01 02:18:12;;;;;;;11.30;8.80;;;;;;;10.26;84.27;101050.34;5027039;28;20177;-68
2021/04/01 02:20:47;;;;;;;11.27;8.63;;;;;;;10.24;83.98;101047.91;4996065;28;20237;-68
2021/04/01 02:23:19;;;;;;;11.40;8.37;;;;;;;10.17;84.42;101041.06;4993170;28;20196;-68
2021/04/01 02:25:45;;;;;;;9.97;7.50;;;;;;;10.09;84.85;101038.81;5009967;28;20637;-68
2021/04/01 02:28:11;;;;;;;11.33;7.70;;;;;;;10.09;85.40;101036.09;5009773;28;20678;-68
2021/04/01 02:30:39;;;;;;;12.17;7.90;;;;;;;10.06;86.11;101039.34;5008415;28;20225;-68
2021/04/01 02:33:05;;;;;;;9.47;7.87;;;;;;;10.07;85.27;101030.09;5008018;28;20573;-68
2021/04/01 02:35:33;;;;;;;9.40;7.17;;;;;;;9.92;85.63;101035.41;5008447;28;20220;-68
2021/04/01 02:37:59;;;;;;;9.27;7.70;;;;;;;9.85;86.88;101037.47;5008785;28;20196;-68
2021/04/01 02:40:24;;;;;;;9.47;7.60;;;;;;;9.89;87.04;101033.19;5022176;28;20209;-68
2021/04/01 02:42:50;;;;;;;10.10;7.80;;;;;;;9.96;87.21;101033.81;5011043;28;20622;-68
2021/04/01 02:45:18;;;;;;;10.63;7.70;;;;;;;9.95;87.45;101043.03;5019282;28;20188;-68
2021/04/01 02:47:44;;;;;;;10.90;7.93;;;;;;;9.81;88.15;101035.56;5029034;28;20323;-68
2021/04/01 02:50:10;;;;;;;10.17;7.60;;;;;;;9.64;88.47;101043.81;5031996;28;20176;-68
2021/04/01 02:52:39;;;;;;;10.47;7.67;;;;;;;9.65;88.90;101053.59;5032644;28;20188;-69
2021/04/01 02:55:11;;;;;;;8.80;7.33;;;;;;;9.68;89.81;101050.34;5047777;28;20279;-68
2021/04/01 02:57:37;;;;;;;10.13;7.57;;;;;;;9.73;89.84;101047.69;5015880;28;20250;-68
2021/04/01 03:00:07;;;;;;;10.10;7.80;;;;;;;9.89;89.32;101054.91;5031643;28;20231;-69
2021/04/01 03:02:33;;;;;;;8.63;7.50;;;;;;;9.92;88.93;101048.16;5047150;28;20231;-69
2021/04/01 03:05:04;;;;;;;9.90;8.10;;;;;;;10.03;88.92;101047.97;5015515;28;20219;-68
2021/04/01 03:07:29;;;;;;;8.73;7.23;;;;;;;10.31;86.86;101040.34;5033087;28;20220;-69
2021/04/01 03:09:55;;;;;;;10.77;7.57;;;;;;;10.21;89.35;101044.88;5048282;28;20188;-68
2021/04/01 03:12:23;;;;;;;14.10;10.17;;;;;;;10.11;88.45;101042.09;5010854;28;20271;-69
2021/04/01 03:14:50;;;;;;;11.40;10.00;;;;;;;10.10;88.44;101045.88;5024853;28;20215;-69
2021/04/01 03:17:21;;;;;;;14.93;10.57;;;;;;;10.19;88.02;101049.75;5027922;28;20600;-69
2021/04/01 03:19:49;;;;;;;10.97;8.47;;;;;;;10.22;88.13;101044.63;5011427;28;20220;-69
2021/04/01 03:22:15;;;;;;;8.77;7.43;;;;;;;10.25;88.06;101044.09;5012076;28;20650;-69
2021/04/01 03:24:41;;;;;;;11.10;7.50;;;;;;;10.18;88.72;101048.09;4980612;28;20295;-68
2021/04/01 03:27:07;;;;;;;9.47;7.60;;;;;;;10.28;88.07;101043.56;5027789;28;20328;-68
2021/04/01 03:29:32;;;;;;;11.80;8.27;;;;;;;10.13;88.49;101053.50;4995687;28;20235;-68
2021/04/01 03:31:58;;;;;;;13.03;7.97;;;;;;;10.06;88.59;101051.00;5011409;28;20228;-69
2021/04/01 03:34:24;;;;;;;10.70;8.03;;;;;;;10.00;89.27;101056.66;4979410;28;20220;-68
2021/04/01 03:36:51;;;;;;;9.13;6.93;;;;;;;10.02;89.77;101051.78;5027742;28;20623;-70
2021/04/01 03:39:20;;;;;;;10.87;8.27;;;;;;;10.04;90.26;101041.50;5012165;28;20219;-69
2021/04/01 03:41:45;;;;;;;9.80;7.90;;;;;;;10.08;91.70;101048.84;5009880;28;20241;-69
2021/04/01 03:44:11;;;;;;;9.67;7.50;;;;;;;9.90;93.59;101036.72;5036069;28;20263;-69
2021/04/01 03:46:37;;;;;;;10.20;7.33;;;;;;;9.96;93.89;101036.53;5012927;28;20224;-69
2021/04/01 03:49:03;;;;;;;9.70;6.93;;;;;;;10.00;92.99;101024.09;5031158;28;20192;-68
2021/04/01 03:51:32;;;;;;;9.87;7.30;;;;;;;10.25;92.17;101021.56;5047239;28;20313;-68
2021/04/01 03:54:00;;;;;;;8.47;6.87;;;;;;;10.10;91.80;101013.31;5046047;28;20215;-68
2021/04/01 03:56:26;;;;;;;9.57;7.83;;;;;;;10.27;92.01;101013.97;5030330;28;20224;-69
2021/04/01 03:59:04;;;;;;;9.87;7.47;;;;;;;10.33;92.19;101010.19;5030745;28;20234;-68
2021/04/01 04:09:44;;;;;;;11.27;8.63;;;;;;;10.22;92.01;101003.06;5031708;28;20204;-69
2021/04/01 04:15:05;;;;;;;11.37;8.47;;;;;;;10.11;92.53;101006.81;5019892;28;20263;-68
2021/04/01 04:17:33;;;;;;;9.73;8.10;;;;;;;9.97;94.26;101007.50;5023665;28;20227;-67
2021/04/01 04:19:59;;;;;;;12.67;10.07;;;;;;;10.16;93.13;101017.69;5013494;28;20278;-68
2021/04/01 04:22:25;;;;;;;12.83;9.60;;;;;;;10.10;93.53;101010.59;5029132;28;20247;-68
2021/04/01 04:24:55;;;;;;;13.37;9.60;;;;;;;10.26;93.81;101017.78;5030342;28;20219;-68
2021/04/01 04:29:47;;;;;;;17.97;14.30;;;;;;;10.37;92.03;101041.22;5031184;28;20176;-67
2021/04/01 04:32:15;;;;;;;16.67;10.43;;;;;;;10.43;91.18;101039.06;4996827;28;20300;-68
2021/04/01 04:34:42;;;;;;;10.67;8.80;;;;;;;10.39;91.28;101032.50;5029902;28;20765;-69
2021/04/01 04:37:08;;;;;;;10.40;8.73;;;;;;;10.39;90.90;101040.66;5046117;28;20223;-68
2021/04/01 04:39:34;;;;;;;13.47;8.63;;;;;;;10.29;91.32;101036.25;5046520;28;20200;-68
2021/04/01 04:42:01;;;;;;;10.93;8.77;;;;;;;10.36;91.76;101042.28;5026846;28;20232;-69
2021/04/01 04:44:29;;;;;;;11.90;8.77;;;;;;;10.28;91.98;101040.06;5018992;28;20208;-69
2021/04/01 04:46:55;;;;;;;12.27;9.57;;;;;;;10.31;92.15;101039.50;5012933;28;20232;-69
2021/04/01 04:49:20;;;;;;;11.00;8.30;;;;;;;10.29;92.51;101028.09;5026311;28;20574;-68
2021/04/01 04:51:45;;;;;;;11.63;8.93;;;;;;;10.24;92.40;101028.09;5025113;28;20231;-68
2021/04/01 04:54:11;;;;;;;12.37;9.43;;;;;;;10.15;94.16;101018.78;5010113;28;20215;-69
2021/04/01 04:56:37;;;;;;;11.57;8.87;;;;;;;10.21;95.10;101015.84;5025668;28;20225;-69
2021/04/01 04:59:16;;;;;;;12.83;8.33;;;;;;;10.18;96.02;101010.09;5026557;28;20228;-69
2021/04/01 05:04:44;;;;;;;11.37;8.90;;;;;;;10.29;96.08;101003.66;5009770;28;20217;-69
2021/04/01 05:07:09;;;;;;;14.60;9.63;;;;;;;10.30;95.26;101019.69;5025427;28;20228;-69
2021/04/01 05:09:35;;;;;;;12.53;9.97;;;;;;;10.07;96.41;101019.25;5026349;28;20188;-68
2021/04/01 05:12:01;;;;;;;11.53;10.20;;;;;;;10.27;94.82;101019.41;5026797;28;20236;-68
2021/04/01 05:14:26;;;;;;;15.07;10.67;;;;;;;10.35;94.63;101010.75;5028125;28;20200;-69
2021/04/01 05:16:57;;;;;;;12.17;10.00;;;;;;;10.51;93.97;101003.28;4984809;28;20220;-69
2021/04/01 05:19:24;;;;;;;13.50;9.90;;;;;;;10.55;93.96;101009.81;5013179;28;20208;-69
2021/04/01 05:24:27;;;;;;;15.20;11.10;;;;;;;10.42;93.46;101034.72;5030665;28;20204;-68
2021/04/01 05:29:28;;;;;;;13.67;11.13;;;;;;;10.71;90.80;101033.25;5013714;28;20176;-69
2021/04/01 05:31:54;;;;;;;13.70;11.07;;;;;;;10.60;91.05;101020.69;5012524;28;20231;-69
2021/04/01 05:34:24;;;;;;;14.80;10.47;;;;;;;10.72;91.22;101029.47;5030699;28;20196;-67
2021/04/01 05:36:51;;;;;;;13.33;9.87;;;;;;;10.82;92.42;101024.06;5013144;28;20227;-67
2021/04/01 05:39:19;;;;;;;13.90;9.67;;;;;;;10.70;94.68;101026.19;5030633;28;20363;-68
2021/04/01 05:41:50;;;;;;;12.30;9.70;;;;;;;10.77;95.02;101013.19;5028013;28;20730;-69
2021/04/01 05:44:32;;;;;;;13.53;9.97;;;;;;;10.81;95.30;101020.53;5041990;28;20211;-69
2021/04/01 06:01:29;;;;;;;12.87;10.27;;;;;;;11.26;92.96;101032.41;5003130;28;20260;-69
2021/04/01 06:04:10;;;;;;;12.90;11.00;;;;;;;11.21;92.75;101040.53;5007319;28;20215;-69
2021/04/01 06:06:59;;;;;;;16.10;10.80;;;;;;;11.33;92.86;101034.88;5040054;28;20220;-69
2021/04/01 06:09:27;;;;;;;15.00;10.73;;;;;;;11.51;91.94;101035.22;5030823;28;20177;-69
2021/04/01 06:12:01;;;;;;;13.37;10.63;;;;;;;11.59;91.58;101045.56;5009100;28;20230;-68
2021/04/01 06:14:33;;;;;;;17.10;11.70;;;;;;;11.59;89.48;101042.84;5018476;28;20259;-69
2021/04/01 06:17:10;;;;;;;15.90;11.60;;;;;;;11.57;89.10;101039.56;5021058;28;20693;-68
2021/04/01 06:19:39;;;;;;;15.97;12.47;;;;;;;11.63;88.87;101038.53;5019608;28;20212;-69
2021/04/01 06:22:06;;;;;;;14.47;11.27;;;;;;;11.89;88.20;101042.91;5014780;28;21022;-70
2021/04/01 06:24:31;;;;;;;13.13;11.07;;;;;;;11.91;88.14;101036.09;5019450;28;20192;-69
2021/04/01 06:27:32;;;;;;;11.63;10.20;;;;;;;11.81;88.32;101035.25;5002737;28;20232;-69
2021/04/01 06:33:03;;;;;;;12.50;10.37;;;;;;;11.76;88.97;101033.38;5015004;28;20224;-69
2021/04/01 06:35:33;;;;;;;13.67;10.83;;;;;;;11.95;88.39;101037.19;5014147;28;20244;-69
2021/04/01 06:40:44;;;;;;;14.00;10.63;;;;;;;12.44;86.81;101036.34;5020656;28;20240;-70
2021/04/01 06:43:22;;;;;;;12.07;10.57;;;;;;;12.57;86.30;101033.84;4992001;28;20217;-70
2021/04/01 06:45:52;;;;;;;12.20;10.47;;;;;;;12.78;86.29;101039.00;5021456;28;20313;-69
2021/04/01 06:48:20;;;;;;;14.37;10.63;;;;;;;13.11;84.50;101032.88;5049293;28;20278;-68
2021/04/01 06:50:51;;;;;;;15.27;12.73;;;;;;;13.44;81.94;101037.63;5033947;28;20224;-69
2021/04/01 06:53:21;;;;;;;12.47;11.17;;;;;;;13.49;80.82;101032.97;5049800;28;20623;-69
2021/04/01 06:55:59;;;;;;;14.37;11.00;;;;;;;13.72;80.67;101030.34;5033300;28;20220;-69
2021/04/01 06:58:39;;;;;;;16.73;11.95;;;;;;;13.53;80.06;101042.22;5016824;28;20198;-69
2021/04/01 07:01:19;;;;;;;16.37;12.53;;;;;;;13.82;79.54;101035.75;5024605;28;20240;-69
2021/04/01 07:03:48;;;;;;;19.33;14.70;;;;;;;14.03;77.12;101045.47;5011658;28;20266;-69
2021/04/01 07:06:29;;;;;;;30.67;21.53;;;;;;;13.52;64.83;101046.06;4995426;28;20216;-69
2021/04/01 07:11:36;;;;;;;39.30;26.13;;;;;;;13.51;60.06;101049.88;5013278;28;20255;-70
2021/04/01 07:14:10;;;;;;;36.73;25.00;;;;;;;13.99;59.73;101036.16;4996127;28;20213;-68
2021/04/01 07:16:49;;;;;;;36.20;25.97;;;;;;;14.14;57.69;101044.25;5009520;28;20712;-70
2021/04/01 07:45:08;;;;;;;48.35;33.50;;;;;;;14.45;49.90;101036.34;5004357;28;20756;-69
2021/04/01 07:47:38;;;;;;;52.58;34.08;;;;;;;14.50;50.86;101040.94;5026899;28;20221;-70
2021/04/01 07:50:25;;;;;;;52.77;34.57;;;;;;;14.55;50.72;101041.69;5027552;28;20196;-69
2021/04/01 07:52:58;;;;;;;53.67;34.03;;;;;;;14.51;49.61;101035.19;5008142;28;20195;-69
2021/04/01 08:00:36;;;;;;;51.03;34.43;;;;;;;14.96;49.06;101048.34;5029605;28;20780;-68
2021/04/01 08:05:46;;;;;;;56.50;33.93;;;;;;;14.83;51.08;101054.53;5009524;28;20224;-68
2021/04/01 08:08:16;;;;;;;49.83;32.42;;;;;;;14.52;51.01;101061.41;5028444;28;20184;-69
2021/04/01 08:10:45;;;;;;;51.00;33.08;;;;;;;14.81;48.98;101060.28;5021156;28;20212;-69
2021/04/01 08:13:17;;;;;;;54.83;34.00;;;;;;;15.15;49.74;101052.81;5040674;28;20205;-69
2021/04/01 08:15:52;;;;;;;49.25;31.90;;;;;;;15.39;48.79;101059.88;5038590;28;20228;-68
2021/04/01 08:18:28;;;;;;;48.92;31.85;;;;;;;15.33;48.40;101050.13;5010736;28;20219;-68
2021/04/01 08:21:04;;;;;;;50.83;32.33;;;;;;;15.47;49.25;101051.00;4994769;28;20329;-69
2021/04/01 08:23:31;;;;;;;48.97;32.08;;;;;;;15.54;49.27;101056.94;5027694;28;20210;-69
2021/04/01 08:31:11;;;;;;;50.47;33.50;;;;;;;15.13;50.13;101055.00;5012517;28;20220;-70
2021/04/01 08:34:09;;;;;;;51.70;33.28;;;;;;;15.18;50.63;101053.06;4995492;28;20810;-68
2021/04/01 08:36:26;;;;;;;52.15;33.28;;;;;;;14.72;51.48;101064.78;5007820;28;20212;-69
2021/04/01 08:38:52;;;;;;;51.75;34.55;;;;;;;14.52;53.10;101055.94;5021917;28;20176;-68
2021/04/01 08:41:56;;;;;;;52.13;33.92;;;;;;;14.50;52.98;101066.34;5025482;28;20775;-68
2021/04/01 08:44:59;;;;;;;53.90;34.85;;;;;;;14.24;53.93;101066.84;5026616;28;20216;-69
2021/04/01 08:47:32;;;;;;;56.40;34.60;;;;;;;14.19;54.09;101069.63;5027885;28;20692;-69
2021/04/01 08:50:11;;;;;;;56.60;34.73;;;;;;;14.12;54.92;101074.63;5004049;28;20188;-69
2021/04/01 08:53:05;;;;;;;53.83;35.10;;;;;;;14.21;54.65;101074.81;5027984;28;20212;-68
2021/04/01 08:55:45;;;;;;;55.63;35.93;;;;;;;14.15;56.28;101084.16;5011982;28;20702;-69
2021/04/01 08:58:20;;;;;;;58.97;36.47;;;;;;;14.06;56.50;101091.31;5009327;28;20204;-70
2021/04/01 09:00:48;;;;;;;58.27;36.87;;;;;;;14.36;55.24;101092.72;5009304;28;20294;-69
2021/04/01 09:03:17;;;;;;;56.73;38.47;;;;;;;14.54;56.90;101096.66;5004971;28;20589;-68
2021/04/01 09:05:53;;;;;;;59.70;38.40;;;;;;;14.54;57.36;101083.81;5022078;28;20227;-68
2021/04/01 09:08:24;;;;;;;61.28;40.22;;;;;;;14.93;56.41;101081.78;5030434;28;20642;-76
2021/04/01 09:10:56;;;;;;;59.67;40.63;;;;;;;14.97;54.54;101100.06;5026092;28;20653;-77
2021/04/01 09:13:30;;;;;;;57.85;38.92;;;;;;;14.87;55.28;101104.81;4978763;28;20240;-78
2021/04/01 09:16:10;;;;;;;59.20;39.92;;;;;;;14.79;57.24;101091.75;4988650;28;20223;-79
2021/04/01 09:18:36;;;;;;;61.05;39.03;;;;;;;14.93;57.41;101107.22;5031866;28;20664;-77
2021/04/01 09:21:03;;;;;;;51.63;36.05;;;;;;;14.66;58.04;101103.38;5030904;28;20231;-76
2021/04/01 09:23:41;;;;;;;51.15;33.78;;;;;;;14.50;58.90;101093.66;5028614;28;20716;-77
2021/04/01 09:26:08;;;;;;;47.80;31.15;;;;;;;14.10;61.83;101131.47;5039984;28;20251;-77
2021/04/01 09:28:35;;;;;;;50.63;33.45;;;;;;;13.82;63.58;101128.59;5012011;28;20189;-77
2021/04/01 09:31:02;;;;;;;53.00;35.83;;;;;;;13.97;64.38;101121.13;4977348;28;20320;-78
2021/04/01 09:33:32;;;;;;;53.33;35.20;;;;;;;14.20;64.39;101146.97;5027344;28;20241;-78
2021/04/01 09:36:19;;;;;;;54.78;34.40;;;;;;;13.81;67.06;101137.91;4995279;28;20225;-76
2021/04/01 09:38:52;;;;;;;49.90;34.00;;;;;;;14.08;67.17;101144.56;4995581;28;20618;-78
2021/04/01 09:41:32;;;;;;;53.50;34.20;;;;;;;14.51;66.58;101143.72;5013898;28;20240;-78
2021/04/01 09:44:08;;;;;;;52.13;33.92;;;;;;;14.75;67.03;101145.41;4996183;28;20215;-78
2021/04/01 09:46:35;;;;;;;56.30;35.50;;;;;;;15.07;67.17;101139.06;4996726;28;20231;-78
2021/04/01 09:49:09;;;;;;;59.08;38.83;;;;;;;15.06;67.83;101137.44;4985108;28;20181;-79
2021/04/01 09:51:34;;;;;;;56.40;37.85;;;;;;;15.07;69.19;101138.22;5013881;28;20221;-78
2021/04/01 09:54:02;;;;;;;44.53;31.85;;;;;;;15.10;69.13;101149.41;5012328;28;20212;-78
2021/04/01 09:56:32;;;;;;;41.85;30.17;;;;;;;14.80;70.57;101159.84;4995204;28;20224;-79
2021/04/01 09:58:58;;;;;;;44.42;28.65;;;;;;;14.48;72.62;101172.44;5012645;28;20681;-78
2021/04/01 10:01:31;;;;;;;37.50;27.57;;;;;;;14.14;72.41;101180.88;4991709;28;20291;-78
2021/04/01 10:04:21;;;;;;;38.00;27.07;;;;;;;14.25;71.84;101175.88;4990735;28;20215;-76
2021/04/01 10:06:50;;;;;;;32.93;24.17;;;;;;;14.29;70.86;101176.94;4994117;28;20701;-78
2021/04/01 10:09:17;;;;;;;33.27;24.03;;;;;;;14.29;69.91;101179.69;5011661;28;20216;-78
2021/04/01 10:11:47;;;;;;;34.37;24.77;;;;;;;13.97;70.81;101192.16;4993832;28;20584;-77
2021/04/01 10:14:15;;;;;;;37.57;24.40;;;;;;;14.05;72.83;101190.78;5013629;28;20215;-78
2021/04/01 10:16:58;;;;;;;36.47;24.50;;;;;;;14.06;70.98;101190.47;5016432;28;20232;-77
2021/04/01 10:19:29;;;;;;;33.73;23.40;;;;;;;13.87;71.06;101207.75;5016975;28;20176;-78
2021/04/01 10:21:55;;;;;;;33.27;23.53;;;;;;;13.57;73.28;101199.69;5013371;28;20633;-77
2021/04/01 10:24:38;;;;;;;28.07;20.40;;;;;;;13.39;74.51;101199.50;5022646;28;20231;-78
2021/04/01 10:27:19;;;;;;;27.27;19.43;;;;;;;13.68;74.16;101206.75;5014400;28;20220;-77
2021/04/01 10:32:14;;;;;;;24.20;16.57;;;;;;;13.80;74.46;101196.31;5014832;28;20296;-79
2021/04/01 10:34:53;;;;;;;20.17;14.07;;;;;;;13.86;71.85;101193.31;5001176;28;20610;-79
2021/04/01 10:37:22;;;;;;;19.47;14.07;;;;;;;13.92;71.42;101191.38;4979731;28;20247;-76
2021/04/01 10:39:50;;;;;;;20.37;13.57;;;;;;;14.21;69.55;101192.31;4996489;28;20259;-77
2021/04/01 10:42:24;;;;;;;15.13;9.43;;;;;;;14.16;68.37;101195.09;4994889;28;20316;-79
2021/04/01 10:45:17;;;;;;;13.57;9.33;;;;;;;14.45;67.14;101194.88;5028544;28;20200;-78
2021/04/01 10:48:10;;;;;;;11.93;8.20;;;;;;;14.81;66.46;101182.56;5032430;28;20212;-78
2021/04/01 10:50:36;;;;;;;9.97;6.40;;;;;;;14.70;65.73;101187.28;5013787;28;20208;-78
2021/04/01 10:53:05;;;;;;;7.97;5.20;;;;;;;14.66;64.93;101191.69;5016290;28;20207;-79
2021/04/01 10:55:31;;;;;;;7.55;4.60;;;;;;;14.51;65.51;101180.06;5014727;28;20721;-79
2021/04/01 10:58:12;;;;;;;6.38;4.20;;;;;;;14.46;67.56;101192.97;5016198;28;20195;-79
2021/04/01 11:00:38;;;;;;;7.13;4.82;;;;;;;14.32;67.74;101198.25;5017059;28;20235;-78
2021/04/01 11:03:16;;;;;;;5.63;4.25;;;;;;;14.64;68.51;101184.88;5015193;28;20272;-78
2021/04/01 11:05:42;;;;;;;6.70;4.28;;;;;;;14.94;66.90;101182.69;5016401;28;20220;-80
2021/04/01 11:08:11;;;;;;;8.05;3.53;;;;;;;15.34;66.88;101187.81;5013006;28;20184;-69
2021/04/01 11:10:37;;;;;;;4.95;3.00;;;;;;;15.70;64.40;101187.91;5027917;28;20287;-70
2021/04/01 11:13:07;;;;;;;4.32;2.85;;;;;;;16.13;63.00;101182.13;5028370;28;20966;-70
2021/04/01 11:15:33;;;;;;;5.03;2.55;;;;;;;16.64;60.50;101189.31;5011781;28;20228;-72
2021/04/01 11:18:08;;;;;;;4.47;2.47;;;;;;;16.67;58.75;101195.03;5028417;28;20236;-69
2021/04/01 11:20:38;;;;;;;4.72;2.50;;;;;;;16.04;61.62;101192.09;5011181;28;20240;-69
2021/04/01 11:23:05;;;;;;;4.15;2.38;;;;;;;15.75;62.05;101201.56;5027277;28;20896;-69
2021/04/01 11:25:31;;;;;;;3.83;2.08;;;;;;;15.16;64.15;101208.53;5011252;28;20612;-69
2021/04/01 11:27:57;;;;;;;6.15;2.30;;;;;;;14.57;65.63;101214.47;5011804;28;20184;-68
2021/04/01 11:30:25;;;;;;;4.88;2.17;;;;;;;14.95;66.23;101210.88;5011331;28;20185;-68
2021/04/01 11:32:54;;;;;;;5.43;2.38;;;;;;;15.41;64.45;101211.00;5010968;28;20213;-68
2021/04/01 11:35:22;;;;;;;6.93;2.40;;;;;;;15.37;65.33;101209.94;5012891;28;20199;-69
2021/04/01 11:37:52;;;;;;;5.07;2.58;;;;;;;14.98;67.92;101223.97;5012325;28;20185;-69
2021/04/01 11:40:18;;;;;;;6.63;2.72;;;;;;;14.48;71.15;101239.97;5013951;28;20287;-71
2021/04/01 11:42:54;;;;;;;6.97;2.60;;;;;;;14.71;71.80;101248.28;5045363;28;20191;-69
2021/04/01 11:45:29;;;;;;;4.97;2.22;;;;;;;13.97;73.31;101270.53;5028287;28;20211;-67
2021/04/01 11:47:54;;;;;;;5.30;2.43;;;;;;;13.47;76.91;101262.50;5030630;28;20187;-70
2021/04/01 11:50:20;;;;;;;5.40;2.63;;;;;;;12.81;80.77;101277.56;5013708;28;20173;-69
2021/04/01 11:52:46;;;;;;;7.70;2.90;;;;;;;12.81;80.89;101277.56;5031152;28;20621;-70
2021/04/01 11:55:17;;;;;;;2.67;2.10;;;;;;;12.76;80.14;101283.81;5031437;28;20214;-67
2021/04/01 11:57:43;;;;;;;5.30;3.23;;;;;;;12.63;80.37;101290.84;5032138;28;20184;-70
2021/04/01 12:00:16;;;;;;;3.20;2.00;;;;;;;12.54;80.88;101287.81;4999661;28;20215;-69
2021/04/01 12:03:18;;;;;;;5.57;2.60;;;;;;;12.92;79.58;101293.66;5031087;28;20210;-69
2021/04/01 12:05:58;;;;;;;3.40;2.13;;;;;;;12.82;79.40;101295.53;5025258;28;20728;-69
2021/04/01 12:08:24;;;;;;;4.13;2.20;;;;;;;12.54;79.97;101292.47;4995649;28;20177;-68
2021/04/01 12:10:55;;;;;;;2.67;2.00;;;;;;;12.73;78.60;101292.50;4995114;28;20749;-69
2021/04/01 12:13:22;;;;;;;3.13;2.00;;;;;;;12.63;80.30;101296.31;5011540;28;20255;-70
2021/04/01 12:15:47;;;;;;;3.37;2.10;;;;;;;12.27;81.76;101294.59;4995493;28;20243;-70
2021/04/01 12:18:13;;;;;;;3.83;2.20;;;;;;;12.58;80.91;101296.28;5015143;28;20212;-69
2021/04/01 12:20:39;;;;;;;4.07;2.00;;;;;;;12.59;80.30;101296.03;4980574;28;20228;-69
2021/04/01 12:23:15;;;;;;;2.63;2.10;;;;;;;12.87;77.98;101292.81;4999496;28;20178;-70
2021/04/01 12:25:41;;;;;;;3.77;2.53;;;;;;;12.83;77.48;101306.16;5029443;28;20632;-70
2021/04/01 12:28:06;;;;;;;3.70;2.47;;;;;;;12.60;79.76;101294.94;5030561;28;20227;-70
2021/04/01 12:30:34;;;;;;;4.97;3.67;;;;;;;12.56;76.75;101317.53;5019262;28;20232;-69
2021/04/01 12:33:09;;;;;;;4.27;3.57;;;;;;;12.48;75.23;101307.19;5010770;28;20212;-69
2021/04/01 12:35:51;;;;;;;5.53;4.30;;;;;;;12.38;76.15;101288.06;5019680;28;20341;-69
2021/04/01 12:38:28;;;;;;;5.87;4.27;;;;;;;12.23;75.59;101301.63;5022033;28;20573;-70
2021/04/01 12:40:54;;;;;;;4.27;3.40;;;;;;;12.36;74.42;101307.41;5016720;28;20221;-68
2021/04/01 12:43:27;;;;;;;6.83;3.67;;;;;;;12.26;73.33;101312.00;5007283;28;20577;-69
2021/04/01 12:45:54;;;;;;;3.90;3.47;;;;;;;12.63;69.55;101312.66;5009156;28;20219;-70
2021/04/01 12:48:19;;;;;;;4.73;3.30;;;;;;;12.54;69.44;101303.38;5008934;28;20185;-70
2021/04/01 12:50:46;;;;;;;3.60;2.70;;;;;;;12.49;69.68;101316.97;5011865;28;20228;-68
2021/04/01 12:53:20;;;;;;;3.57;2.47;;;;;;;12.63;67.05;101309.94;5029653;28;20199;-68
2021/04/01 12:55:54;;;;;;;3.53;2.40;;;;;;;12.90;65.72;101309.47;5029626;28;20230;-69
2021/04/01 12:58:35;;;;;;;3.33;2.10;;;;;;;13.38;62.92;101328.03;5015184;28;20199;-68
2021/04/01 13:03:56;;;;;;;3.77;2.50;;;;;;;12.40;68.08;101326.78;5014618;28;20560;-69